sensor_id;sensor_type;location;lat;lon;timestamp;P1;durP1;ratioP1;P2;durP2;ratioP2
20101;SDS011;10210;52.284;9.892;2023-04-16T00:02:18;31.43;;;22.17;;
20101;SDS011;10210;52.284;9.892;2023-04-16T00:04:44;29.67;;;21.37;;
20101;SDS011;10210;52.284;9.892;2023-04-16T00:07:10;33.40;;;22.33;;
20101;SDS011;10210;52.284;9.892;2023-04-16T00:09:36;31.73;;;21.67;;
20101;SDS011;10210;52.284;9.892;2023-04-16T00:12:02;31.10;;;22.33;;
20101;SDS011;10210;52.284;9.892;2023-04-16T00:14:28;31.90;;;22.97;;
20101;SDS011;10210;52.284;9.892;2023-04-16T00:16:54;30.40;;;22.03;;
20101;SDS011;10210;52.284;9.892;2023-04-16T00:19:20;30.00;;;21.77;;
20101;SDS011;10210;52.284;9.892;2023-04-16T00:21:46;31.60;;;22.30;;
20101;SDS011;10210;52.284;9.892;2023-04-16T00:24:11;31.23;;;21.50;;
20101;SDS011;10210;52.284;9.892;2023-04-16T00:26:37;30.33;;;21.13;;
20101;SDS011;10210;52.284;9.892;2023-04-16T00:29:03;30.37;;;22.03;;
20101;SDS011;10210;52.284;9.892;2023-04-16T00:31:29;32.23;;;22.30;;
20101;SDS011;10210;52.284;9.892;2023-04-16T00:33:57;31.87;;;23.93;;
20101;SDS011;10210;52.284;9.892;2023-04-16T00:36:23;33.00;;;22.97;;
20101;SDS011;10210;52.284;9.892;2023-04-16T00:38:54;31.67;;;22.93;;
20101;SDS011;10210;52.284;9.892;2023-04-16T00:41:20;31.90;;;22.57;;
20101;SDS011;10210;52.284;9.892;2023-04-16T00:43:47;29.33;;;21.83;;
20101;SDS011;10210;52.284;9.892;2023-04-16T00:46:13;33.53;;;22.17;;
20101;SDS011;10210;52.284;9.892;2023-04-16T00:48:43;30.23;;;21.90;;
20101;SDS011;10210;52.284;9.892;2023-04-16T00:51:09;32.93;;;21.70;;
20101;SDS011;10210;52.284;9.892;2023-04-16T00:53:35;30.60;;;21.57;;
20101;SDS011;10210;52.284;9.892;2023-04-16T00:56:02;35.03;;;23.50;;
20101;SDS011;10210;52.284;9.892;2023-04-16T00:58:31;35.17;;;22.67;;
20101;SDS011;10210;52.284;9.892;2023-04-16T01:00:59;33.07;;;23.97;;
20101;SDS011;10210;52.284;9.892;2023-04-16T01:03:28;34.73;;;25.03;;
20101;SDS011;10210;52.284;9.892;2023-04-16T01:06:06;38.23;;;27.00;;
20101;SDS011;10210;52.284;9.892;2023-04-16T01:08:32;38.20;;;27.37;;
20101;SDS011;10210;52.284;9.892;2023-04-16T01:10:57;39.27;;;26.83;;
20101;SDS011;10210;52.284;9.892;2023-04-16T01:13:23;41.20;;;28.80;;
20101;SDS011;10210;52.284;9.892;2023-04-16T01:15:49;42.40;;;29.10;;
20101;SDS011;10210;52.284;9.892;2023-04-16T01:18:16;43.47;;;30.50;;
20101;SDS011;10210;52.284;9.892;2023-04-16T01:20:44;41.70;;;28.83;;
20101;SDS011;10210;52.284;9.892;2023-04-16T01:23:10;44.00;;;29.10;;
20101;SDS011;10210;52.284;9.892;2023-04-16T01:25:36;39.30;;;28.13;;
20101;SDS011;10210;52.284;9.892;2023-04-16T01:28:02;39.67;;;26.73;;
20101;SDS011;10210;52.284;9.892;2023-04-16T01:30:29;38.93;;;26.37;;
20101;SDS011;10210;52.284;9.892;2023-04-16T01:32:54;36.07;;;25.57;;
20101;SDS011;10210;52.284;9.892;2023-04-16T01:35:21;34.07;;;23.60;;
20101;SDS011;10210;52.284;9.892;2023-04-16T01:37:48;33.97;;;24.07;;
20101;SDS011;10210;52.284;9.892;2023-04-16T01:40:15;34.50;;;24.43;;
20101;SDS011;10210;52.284;9.892;2023-04-16T01:42:42;34.00;;;24.03;;
20101;SDS011;10210;52.284;9.892;2023-04-16T01:45:07;33.30;;;23.80;;
20101;SDS011;10210;52.284;9.892;2023-04-16T01:47:34;35.27;;;25.43;;
20101;SDS011;10210;52.284;9.892;2023-04-16T01:49:59;37.13;;;25.33;;
20101;SDS011;10210;52.284;9.892;2023-04-16T01:52:26;35.37;;;24.17;;
20101;SDS011;10210;52.284;9.892;2023-04-16T01:54:51;33.67;;;25.07;;
20101;SDS011;10210;52.284;9.892;2023-04-16T01:57:17;35.10;;;25.17;;
20101;SDS011;10210;52.284;9.892;2023-04-16T01:59:43;32.67;;;23.70;;
20101;SDS011;10210;52.284;9.892;2023-04-16T02:02:09;32.30;;;23.83;;
20101;SDS011;10210;52.284;9.892;2023-04-16T02:04:37;39.77;;;26.70;;
20101;SDS011;10210;52.284;9.892;2023-04-16T02:07:10;37.00;;;26.00;;
20101;SDS011;10210;52.284;9.892;2023-04-16T02:09:36;38.87;;;27.07;;
20101;SDS011;10210;52.284;9.892;2023-04-16T02:12:04;36.80;;;25.93;;
20101;SDS011;10210;52.284;9.892;2023-04-16T02:14:32;36.73;;;26.43;;
20101;SDS011;10210;52.284;9.892;2023-04-16T02:16:58;33.67;;;24.87;;
20101;SDS011;10210;52.284;9.892;2023-04-16T02:19:25;35.83;;;25.73;;
20101;SDS011;10210;52.284;9.892;2023-04-16T02:21:51;40.90;;;26.83;;
20101;SDS011;10210;52.284;9.892;2023-04-16T02:24:17;36.83;;;25.60;;
20101;SDS011;10210;52.284;9.892;2023-04-16T02:26:44;36.80;;;26.27;;
20101;SDS011;10210;52.284;9.892;2023-04-16T02:29:09;37.53;;;26.83;;
20101;SDS011;10210;52.284;9.892;2023-04-16T02:31:36;37.40;;;26.77;;
20101;SDS011;10210;52.284;9.892;2023-04-16T02:34:02;36.83;;;25.50;;
20101;SDS011;10210;52.284;9.892;2023-04-16T02:36:28;36.57;;;25.47;;
20101;SDS011;10210;52.284;9.892;2023-04-16T02:38:54;39.67;;;26.03;;
20101;SDS011;10210;52.284;9.892;2023-04-16T02:41:19;35.53;;;25.33;;
20101;SDS011;10210;52.284;9.892;2023-04-16T02:43:45;39.10;;;26.43;;
20101;SDS011;10210;52.284;9.892;2023-04-16T02:46:11;35.07;;;24.40;;
20101;SDS011;10210;52.284;9.892;2023-04-16T02:48:36;34.27;;;23.83;;
20101;SDS011;10210;52.284;9.892;2023-04-16T02:51:02;36.27;;;25.73;;
20101;SDS011;10210;52.284;9.892;2023-04-16T02:53:28;35.83;;;24.93;;
20101;SDS011;10210;52.284;9.892;2023-04-16T02:55:54;35.17;;;25.03;;
20101;SDS011;10210;52.284;9.892;2023-04-16T02:58:20;38.80;;;26.17;;
20101;SDS011;10210;52.284;9.892;2023-04-16T03:00:48;37.93;;;25.93;;
20101;SDS011;10210;52.284;9.892;2023-04-16T03:03:15;37.70;;;25.80;;
20101;SDS011;10210;52.284;9.892;2023-04-16T03:05:41;36.67;;;25.60;;
20101;SDS011;10210;52.284;9.892;2023-04-16T03:08:07;36.70;;;25.37;;
20101;SDS011;10210;52.284;9.892;2023-04-16T03:10:33;37.00;;;26.03;;
20101;SDS011;10210;52.284;9.892;2023-04-16T03:13:00;39.20;;;26.90;;
20101;SDS011;10210;52.284;9.892;2023-04-16T03:15:26;38.83;;;26.73;;
20101;SDS011;10210;52.284;9.892;2023-04-16T03:17:52;38.93;;;27.47;;
20101;SDS011;10210;52.284;9.892;2023-04-16T03:20:18;40.03;;;26.63;;
20101;SDS011;10210;52.284;9.892;2023-04-16T03:22:45;38.90;;;26.00;;
20101;SDS011;10210;52.284;9.892;2023-04-16T03:25:11;36.97;;;25.80;;
20101;SDS011;10210;52.284;9.892;2023-04-16T03:27:37;38.10;;;25.77;;
20101;SDS011;10210;52.284;9.892;2023-04-16T03:30:04;39.10;;;26.47;;
20101;SDS011;10210;52.284;9.892;2023-04-16T03:32:40;40.70;;;26.77;;
20101;SDS011;10210;52.284;9.892;2023-04-16T03:35:06;39.50;;;25.50;;
20101;SDS011;10210;52.284;9.892;2023-04-16T03:37:33;38.13;;;25.23;;
20101;SDS011;10210;52.284;9.892;2023-04-16T03:40:00;38.60;;;25.47;;
20101;SDS011;10210;52.284;9.892;2023-04-16T03:42:25;36.47;;;24.57;;
20101;SDS011;10210;52.284;9.892;2023-04-16T03:44:51;37.93;;;25.43;;
20101;SDS011;10210;52.284;9.892;2023-04-16T03:47:17;38.40;;;25.00;;
20101;SDS011;10210;52.284;9.892;2023-04-16T03:49:45;41.27;;;26.57;;
20101;SDS011;10210;52.284;9.892;2023-04-16T03:52:10;39.80;;;25.03;;
20101;SDS011;10210;52.284;9.892;2023-04-16T03:54:36;40.90;;;25.67;;
20101;SDS011;10210;52.284;9.892;2023-04-16T03:57:02;38.07;;;25.23;;
20101;SDS011;10210;52.284;9.892;2023-04-16T03:59:28;37.50;;;25.47;;
20101;SDS011;10210;52.284;9.892;2023-04-16T04:01:53;37.80;;;25.87;;
20101;SDS011;10210;52.284;9.892;2023-04-16T04:04:19;37.17;;;25.03;;
20101;SDS011;10210;52.284;9.892;2023-04-16T04:06:45;35.10;;;23.67;;
20101;SDS011;10210;52.284;9.892;2023-04-16T04:09:11;37.13;;;24.27;;
20101;SDS011;10210;52.284;9.892;2023-04-16T04:11:37;40.53;;;25.53;;
20101;SDS011;10210;52.284;9.892;2023-04-16T04:14:03;40.13;;;25.27;;
20101;SDS011;10210;52.284;9.892;2023-04-16T04:16:31;38.00;;;25.00;;
20101;SDS011;10210;52.284;9.892;2023-04-16T04:18:57;35.73;;;24.27;;
20101;SDS011;10210;52.284;9.892;2023-04-16T04:21:24;38.67;;;25.63;;
20101;SDS011;10210;52.284;9.892;2023-04-16T04:23:51;36.63;;;24.60;;
20101;SDS011;10210;52.284;9.892;2023-04-16T04:26:17;38.83;;;24.90;;
20101;SDS011;10210;52.284;9.892;2023-04-16T04:28:42;38.97;;;26.10;;
20101;SDS011;10210;52.284;9.892;2023-04-16T04:31:08;38.23;;;24.80;;
20101;SDS011;10210;52.284;9.892;2023-04-16T04:33:34;37.97;;;25.37;;
20101;SDS011;10210;52.284;9.892;2023-04-16T04:36:00;38.13;;;25.53;;
20101;SDS011;10210;52.284;9.892;2023-04-16T04:38:25;37.57;;;25.73;;
20101;SDS011;10210;52.284;9.892;2023-04-16T04:40:51;38.10;;;25.10;;
20101;SDS011;10210;52.284;9.892;2023-04-16T04:43:17;38.20;;;23.70;;
20101;SDS011;10210;52.284;9.892;2023-04-16T04:45:44;38.53;;;25.93;;
20101;SDS011;10210;52.284;9.892;2023-04-16T04:48:10;37.87;;;25.40;;
20101;SDS011;10210;52.284;9.892;2023-04-16T04:50:36;36.77;;;24.30;;
20101;SDS011;10210;52.284;9.892;2023-04-16T04:53:02;36.20;;;23.83;;
20101;SDS011;10210;52.284;9.892;2023-04-16T04:55:33;36.90;;;24.43;;
20101;SDS011;10210;52.284;9.892;2023-04-16T04:58:04;33.53;;;22.17;;
20101;SDS011;10210;52.284;9.892;2023-04-16T05:00:31;36.77;;;23.60;;
20101;SDS011;10210;52.284;9.892;2023-04-16T05:03:01;34.40;;;22.90;;
20101;SDS011;10210;52.284;9.892;2023-04-16T05:05:29;36.00;;;23.47;;
20101;SDS011;10210;52.284;9.892;2023-04-16T05:07:55;35.20;;;23.70;;
20101;SDS011;10210;52.284;9.892;2023-04-16T05:10:20;39.30;;;24.80;;
20101;SDS011;10210;52.284;9.892;2023-04-16T05:12:46;33.03;;;21.67;;
20101;SDS011;10210;52.284;9.892;2023-04-16T05:15:12;35.93;;;22.37;;
20101;SDS011;10210;52.284;9.892;2023-04-16T05:17:39;37.87;;;24.53;;
20101;SDS011;10210;52.284;9.892;2023-04-16T05:20:06;35.10;;;23.37;;
20101;SDS011;10210;52.284;9.892;2023-04-16T05:22:34;40.17;;;24.43;;
20101;SDS011;10210;52.284;9.892;2023-04-16T05:25:00;40.27;;;24.30;;
20101;SDS011;10210;52.284;9.892;2023-04-16T05:27:26;35.23;;;24.33;;
20101;SDS011;10210;52.284;9.892;2023-04-16T05:29:52;34.30;;;23.13;;
20101;SDS011;10210;52.284;9.892;2023-04-16T05:32:17;33.40;;;22.73;;
20101;SDS011;10210;52.284;9.892;2023-04-16T05:34:43;35.17;;;23.10;;
20101;SDS011;10210;52.284;9.892;2023-04-16T05:37:09;36.47;;;22.73;;
20101;SDS011;10210;52.284;9.892;2023-04-16T05:39:34;36.50;;;24.87;;
20101;SDS011;10210;52.284;9.892;2023-04-16T05:42:00;35.70;;;23.37;;
20101;SDS011;10210;52.284;9.892;2023-04-16T05:44:25;33.83;;;23.57;;
20101;SDS011;10210;52.284;9.892;2023-04-16T05:46:51;32.90;;;22.67;;
20101;SDS011;10210;52.284;9.892;2023-04-16T05:49:17;34.10;;;22.87;;
20101;SDS011;10210;52.284;9.892;2023-04-16T05:51:43;34.27;;;23.50;;
20101;SDS011;10210;52.284;9.892;2023-04-16T05:54:08;37.57;;;23.47;;
20101;SDS011;10210;52.284;9.892;2023-04-16T05:56:35;36.57;;;23.27;;
20101;SDS011;10210;52.284;9.892;2023-04-16T05:59:02;35.10;;;22.97;;
20101;SDS011;10210;52.284;9.892;2023-04-16T06:01:28;34.80;;;22.17;;
20101;SDS011;10210;52.284;9.892;2023-04-16T06:03:54;35.47;;;23.23;;
20101;SDS011;10210;52.284;9.892;2023-04-16T06:06:19;32.50;;;20.87;;
20101;SDS011;10210;52.284;9.892;2023-04-16T06:08:45;35.17;;;21.23;;
20101;SDS011;10210;52.284;9.892;2023-04-16T06:11:11;32.57;;;21.63;;
20101;SDS011;10210;52.284;9.892;2023-04-16T06:13:37;30.73;;;21.57;;
20101;SDS011;10210;52.284;9.892;2023-04-16T06:16:03;34.83;;;21.63;;
20101;SDS011;10210;52.284;9.892;2023-04-16T06:18:29;34.23;;;21.97;;
20101;SDS011;10210;52.284;9.892;2023-04-16T06:20:55;33.00;;;21.17;;
20101;SDS011;10210;52.284;9.892;2023-04-16T06:23:22;32.47;;;20.60;;
20101;SDS011;10210;52.284;9.892;2023-04-16T06:25:48;32.27;;;21.03;;
20101;SDS011;10210;52.284;9.892;2023-04-16T06:28:14;32.00;;;20.63;;
20101;SDS011;10210;52.284;9.892;2023-04-16T06:30:42;34.10;;;21.17;;
20101;SDS011;10210;52.284;9.892;2023-04-16T06:33:08;33.00;;;21.50;;
20101;SDS011;10210;52.284;9.892;2023-04-16T06:35:33;31.37;;;21.00;;
20101;SDS011;10210;52.284;9.892;2023-04-16T06:37:59;32.93;;;21.57;;
20101;SDS011;10210;52.284;9.892;2023-04-16T06:40:25;32.03;;;20.43;;
20101;SDS011;10210;52.284;9.892;2023-04-16T06:42:51;30.20;;;19.87;;
20101;SDS011;10210;52.284;9.892;2023-04-16T06:45:17;33.63;;;20.47;;
20101;SDS011;10210;52.284;9.892;2023-04-16T06:47:42;31.43;;;19.43;;
20101;SDS011;10210;52.284;9.892;2023-04-16T06:50:08;32.27;;;21.10;;
20101;SDS011;10210;52.284;9.892;2023-04-16T06:52:34;33.23;;;19.90;;
20101;SDS011;10210;52.284;9.892;2023-04-16T06:55:00;33.80;;;21.23;;
20101;SDS011;10210;52.284;9.892;2023-04-16T06:57:26;30.07;;;19.83;;
20101;SDS011;10210;52.284;9.892;2023-04-16T06:59:52;33.43;;;19.57;;
20101;SDS011;10210;52.284;9.892;2023-04-16T07:02:17;29.70;;;18.83;;
20101;SDS011;10210;52.284;9.892;2023-04-16T07:04:43;32.53;;;20.70;;
20101;SDS011;10210;52.284;9.892;2023-04-16T07:07:08;29.67;;;18.83;;
20101;SDS011;10210;52.284;9.892;2023-04-16T07:09:35;31.83;;;19.70;;
20101;SDS011;10210;52.284;9.892;2023-04-16T07:12:00;30.47;;;18.80;;
20101;SDS011;10210;52.284;9.892;2023-04-16T07:14:26;30.80;;;20.13;;
20101;SDS011;10210;52.284;9.892;2023-04-16T07:16:51;29.47;;;19.37;;
20101;SDS011;10210;52.284;9.892;2023-04-16T07:19:17;32.60;;;20.20;;
20101;SDS011;10210;52.284;9.892;2023-04-16T07:21:43;31.67;;;19.60;;
20101;SDS011;10210;52.284;9.892;2023-04-16T07:24:09;29.07;;;18.93;;
20101;SDS011;10210;52.284;9.892;2023-04-16T07:26:37;29.10;;;19.53;;
20101;SDS011;10210;52.284;9.892;2023-04-16T07:29:03;31.83;;;19.70;;
20101;SDS011;10210;52.284;9.892;2023-04-16T07:31:29;29.33;;;18.07;;
20101;SDS011;10210;52.284;9.892;2023-04-16T07:33:55;30.17;;;20.03;;
20101;SDS011;10210;52.284;9.892;2023-04-16T07:36:21;29.87;;;20.37;;
20101;SDS011;10210;52.284;9.892;2023-04-16T07:38:47;30.07;;;19.40;;
20101;SDS011;10210;52.284;9.892;2023-04-16T07:41:13;29.97;;;19.33;;
20101;SDS011;10210;52.284;9.892;2023-04-16T07:43:39;31.30;;;18.10;;
20101;SDS011;10210;52.284;9.892;2023-04-16T07:46:05;27.90;;;18.63;;
20101;SDS011;10210;52.284;9.892;2023-04-16T07:48:31;28.50;;;19.00;;
20101;SDS011;10210;52.284;9.892;2023-04-16T07:50:56;28.03;;;18.30;;
20101;SDS011;10210;52.284;9.892;2023-04-16T07:53:22;27.23;;;17.60;;
20101;SDS011;10210;52.284;9.892;2023-04-16T07:55:48;27.40;;;17.57;;
20101;SDS011;10210;52.284;9.892;2023-04-16T07:58:13;28.20;;;18.53;;
20101;SDS011;10210;52.284;9.892;2023-04-16T08:00:39;31.40;;;18.37;;
20101;SDS011;10210;52.284;9.892;2023-04-16T08:03:05;29.67;;;18.67;;
20101;SDS011;10210;52.284;9.892;2023-04-16T08:05:31;27.87;;;18.30;;
20101;SDS011;10210;52.284;9.892;2023-04-16T08:07:57;29.13;;;17.83;;
20101;SDS011;10210;52.284;9.892;2023-04-16T08:10:22;29.17;;;16.93;;
20101;SDS011;10210;52.284;9.892;2023-04-16T08:12:48;27.40;;;17.50;;
20101;SDS011;10210;52.284;9.892;2023-04-16T08:15:14;27.53;;;17.20;;
20101;SDS011;10210;52.284;9.892;2023-04-16T08:17:39;27.30;;;17.97;;
20101;SDS011;10210;52.284;9.892;2023-04-16T08:20:06;30.77;;;18.30;;
20101;SDS011;10210;52.284;9.892;2023-04-16T08:22:32;25.53;;;17.40;;
20101;SDS011;10210;52.284;9.892;2023-04-16T08:24:58;30.10;;;18.23;;
20101;SDS011;10210;52.284;9.892;2023-04-16T08:27:23;28.20;;;18.67;;
20101;SDS011;10210;52.284;9.892;2023-04-16T08:29:49;27.60;;;17.70;;
20101;SDS011;10210;52.284;9.892;2023-04-16T08:32:15;26.53;;;17.43;;
20101;SDS011;10210;52.284;9.892;2023-04-16T08:34:42;26.97;;;16.90;;
20101;SDS011;10210;52.284;9.892;2023-04-16T08:37:08;29.57;;;17.83;;
20101;SDS011;10210;52.284;9.892;2023-04-16T08:39:34;28.13;;;18.47;;
20101;SDS011;10210;52.284;9.892;2023-04-16T08:42:00;30.60;;;18.30;;
20101;SDS011;10210;52.284;9.892;2023-04-16T08:44:33;27.70;;;17.73;;
20101;SDS011;10210;52.284;9.892;2023-04-16T08:47:07;30.27;;;17.63;;
20101;SDS011;10210;52.284;9.892;2023-04-16T08:49:40;27.50;;;18.73;;
20101;SDS011;10210;52.284;9.892;2023-04-16T08:52:11;27.60;;;18.23;;
20101;SDS011;10210;52.284;9.892;2023-04-16T08:54:58;27.23;;;16.50;;
20101;SDS011;10210;52.284;9.892;2023-04-16T08:57:43;25.97;;;16.53;;
20101;SDS011;10210;52.284;9.892;2023-04-16T09:00:25;25.37;;;17.37;;
20101;SDS011;10210;52.284;9.892;2023-04-16T09:02:53;27.33;;;17.27;;
20101;SDS011;10210;52.284;9.892;2023-04-16T09:05:19;27.97;;;17.33;;
20101;SDS011;10210;52.284;9.892;2023-04-16T09:07:49;25.53;;;16.70;;
20101;SDS011;10210;52.284;9.892;2023-04-16T09:10:17;30.67;;;18.63;;
20101;SDS011;10210;52.284;9.892;2023-04-16T09:12:44;25.43;;;16.53;;
20101;SDS011;10210;52.284;9.892;2023-04-16T09:15:11;26.93;;;16.87;;
20101;SDS011;10210;52.284;9.892;2023-04-16T09:17:38;25.77;;;17.10;;
20101;SDS011;10210;52.284;9.892;2023-04-16T09:20:04;24.93;;;16.67;;
20101;SDS011;10210;52.284;9.892;2023-04-16T09:22:36;27.27;;;17.20;;
20101;SDS011;10210;52.284;9.892;2023-04-16T09:25:04;24.30;;;14.97;;
20101;SDS011;10210;52.284;9.892;2023-04-16T09:27:31;26.47;;;17.37;;
20101;SDS011;10210;52.284;9.892;2023-04-16T09:29:57;28.53;;;17.97;;
20101;SDS011;10210;52.284;9.892;2023-04-16T09:32:24;27.50;;;18.00;;
20101;SDS011;10210;52.284;9.892;2023-04-16T09:37:29;28.30;;;18.17;;
20101;SDS011;10210;52.284;9.892;2023-04-16T09:40:02;27.63;;;17.63;;
20101;SDS011;10210;52.284;9.892;2023-04-16T09:42:29;29.50;;;18.23;;
20101;SDS011;10210;52.284;9.892;2023-04-16T09:44:58;27.13;;;17.57;;
20101;SDS011;10210;52.284;9.892;2023-04-16T09:47:40;31.77;;;18.60;;
20101;SDS011;10210;52.284;9.892;2023-04-16T09:50:08;31.47;;;18.80;;
20101;SDS011;10210;52.284;9.892;2023-04-16T09:52:47;27.53;;;17.43;;
20101;SDS011;10210;52.284;9.892;2023-04-16T09:55:21;27.23;;;17.93;;
20101;SDS011;10210;52.284;9.892;2023-04-16T09:57:48;27.90;;;17.83;;
20101;SDS011;10210;52.284;9.892;2023-04-16T10:00:23;26.73;;;17.33;;
20101;SDS011;10210;52.284;9.892;2023-04-16T10:02:48;29.27;;;18.37;;
20101;SDS011;10210;52.284;9.892;2023-04-16T10:05:27;28.27;;;18.17;;
20101;SDS011;10210;52.284;9.892;2023-04-16T10:07:53;27.90;;;18.23;;
20101;SDS011;10210;52.284;9.892;2023-04-16T10:10:28;27.37;;;18.53;;
20101;SDS011;10210;52.284;9.892;2023-04-16T10:12:54;26.77;;;17.93;;
20101;SDS011;10210;52.284;9.892;2023-04-16T10:15:20;27.63;;;18.20;;
20101;SDS011;10210;52.284;9.892;2023-04-16T10:17:46;29.33;;;17.80;;
20101;SDS011;10210;52.284;9.892;2023-04-16T10:20:14;28.30;;;19.13;;
20101;SDS011;10210;52.284;9.892;2023-04-16T10:22:42;30.00;;;18.67;;
20101;SDS011;10210;52.284;9.892;2023-04-16T10:25:08;27.00;;;18.50;;
20101;SDS011;10210;52.284;9.892;2023-04-16T10:27:35;28.67;;;19.30;;
20101;SDS011;10210;52.284;9.892;2023-04-16T10:30:02;26.83;;;18.63;;
20101;SDS011;10210;52.284;9.892;2023-04-16T10:32:29;30.27;;;19.70;;
20101;SDS011;10210;52.284;9.892;2023-04-16T10:34:55;27.30;;;19.20;;
20101;SDS011;10210;52.284;9.892;2023-04-16T10:37:28;27.47;;;18.90;;
20101;SDS011;10210;52.284;9.892;2023-04-16T10:39:55;28.73;;;20.17;;
20101;SDS011;10210;52.284;9.892;2023-04-16T10:42:22;29.27;;;19.47;;
20101;SDS011;10210;52.284;9.892;2023-04-16T10:44:49;27.07;;;18.80;;
20101;SDS011;10210;52.284;9.892;2023-04-16T10:47:15;27.10;;;20.07;;
20101;SDS011;10210;52.284;9.892;2023-04-16T10:49:41;27.27;;;18.90;;
20101;SDS011;10210;52.284;9.892;2023-04-16T10:52:11;28.77;;;18.77;;
20101;SDS011;10210;52.284;9.892;2023-04-16T10:54:45;26.90;;;18.70;;
20101;SDS011;10210;52.284;9.892;2023-04-16T10:57:15;26.47;;;19.03;;
20101;SDS011;10210;52.284;9.892;2023-04-16T10:59:42;28.60;;;20.30;;
20101;SDS011;10210;52.284;9.892;2023-04-16T11:02:13;28.83;;;20.20;;
20101;SDS011;10210;52.284;9.892;2023-04-16T11:04:46;26.90;;;19.20;;
20101;SDS011;10210;52.284;9.892;2023-04-16T11:07:17;28.47;;;20.60;;
20101;SDS011;10210;52.284;9.892;2023-04-16T11:10:04;29.77;;;20.83;;
20101;SDS011;10210;52.284;9.892;2023-04-16T11:15:08;27.90;;;20.20;;
20101;SDS011;10210;52.284;9.892;2023-04-16T11:17:36;30.00;;;21.60;;
20101;SDS011;10210;52.284;9.892;2023-04-16T11:20:05;28.97;;;21.80;;
20101;SDS011;10210;52.284;9.892;2023-04-16T11:22:39;30.53;;;22.60;;
20101;SDS011;10210;52.284;9.892;2023-04-16T11:25:07;28.60;;;20.60;;
20101;SDS011;10210;52.284;9.892;2023-04-16T11:27:33;29.53;;;21.77;;
20101;SDS011;10210;52.284;9.892;2023-04-16T11:29:59;32.13;;;23.10;;
20101;SDS011;10210;52.284;9.892;2023-04-16T11:32:31;31.03;;;22.37;;
20101;SDS011;10210;52.284;9.892;2023-04-16T11:34:59;29.53;;;21.63;;
20101;SDS011;10210;52.284;9.892;2023-04-16T11:37:32;30.20;;;21.40;;
20101;SDS011;10210;52.284;9.892;2023-04-16T11:40:00;31.60;;;21.67;;
20101;SDS011;10210;52.284;9.892;2023-04-16T11:42:30;29.93;;;22.07;;
20101;SDS011;10210;52.284;9.892;2023-04-16T11:44:56;28.83;;;21.40;;
20101;SDS011;10210;52.284;9.892;2023-04-16T11:47:27;31.17;;;22.50;;
20101;SDS011;10210;52.284;9.892;2023-04-16T11:49:55;29.23;;;21.73;;
20101;SDS011;10210;52.284;9.892;2023-04-16T11:52:26;30.67;;;22.50;;
20101;SDS011;10210;52.284;9.892;2023-04-16T11:54:54;32.30;;;23.00;;
20101;SDS011;10210;52.284;9.892;2023-04-16T11:57:27;31.33;;;22.70;;
20101;SDS011;10210;52.284;9.892;2023-04-16T11:59:55;32.80;;;25.07;;
20101;SDS011;10210;52.284;9.892;2023-04-16T12:07:59;32.23;;;22.40;;
20101;SDS011;10210;52.284;9.892;2023-04-16T12:10:37;34.47;;;24.33;;
20101;SDS011;10210;52.284;9.892;2023-04-16T12:13:18;30.97;;;23.13;;
20101;SDS011;10210;52.284;9.892;2023-04-16T12:15:54;32.57;;;24.67;;
20101;SDS011;10210;52.284;9.892;2023-04-16T12:18:24;31.90;;;22.97;;
20101;SDS011;10210;52.284;9.892;2023-04-16T12:20:53;32.73;;;24.17;;
20101;SDS011;10210;52.284;9.892;2023-04-16T12:23:28;31.77;;;23.73;;
20101;SDS011;10210;52.284;9.892;2023-04-16T12:25:58;32.67;;;23.57;;
20101;SDS011;10210;52.284;9.892;2023-04-16T12:28:35;35.57;;;25.37;;
20101;SDS011;10210;52.284;9.892;2023-04-16T12:31:02;34.10;;;25.03;;
20101;SDS011;10210;52.284;9.892;2023-04-16T12:33:29;32.53;;;24.13;;
20101;SDS011;10210;52.284;9.892;2023-04-16T12:35:55;34.20;;;24.03;;
20101;SDS011;10210;52.284;9.892;2023-04-16T12:38:21;32.27;;;22.93;;
20101;SDS011;10210;52.284;9.892;2023-04-16T12:40:47;33.53;;;25.33;;
20101;SDS011;10210;52.284;9.892;2023-04-16T12:43:12;33.23;;;24.10;;
20101;SDS011;10210;52.284;9.892;2023-04-16T12:45:38;33.37;;;24.70;;
20101;SDS011;10210;52.284;9.892;2023-04-16T12:48:04;34.37;;;25.53;;
20101;SDS011;10210;52.284;9.892;2023-04-16T12:50:31;35.67;;;25.80;;
20101;SDS011;10210;52.284;9.892;2023-04-16T12:52:57;36.37;;;25.07;;
20101;SDS011;10210;52.284;9.892;2023-04-16T12:55:23;35.10;;;25.30;;
20101;SDS011;10210;52.284;9.892;2023-04-16T12:57:49;36.73;;;26.50;;
20101;SDS011;10210;52.284;9.892;2023-04-16T13:00:17;34.23;;;25.50;;
20101;SDS011;10210;52.284;9.892;2023-04-16T13:02:47;35.47;;;25.33;;
20101;SDS011;10210;52.284;9.892;2023-04-16T13:05:13;35.17;;;25.77;;
20101;SDS011;10210;52.284;9.892;2023-04-16T13:07:40;35.63;;;26.10;;
20101;SDS011;10210;52.284;9.892;2023-04-16T13:10:06;35.30;;;25.70;;
20101;SDS011;10210;52.284;9.892;2023-04-16T13:12:33;34.60;;;25.33;;
20101;SDS011;10210;52.284;9.892;2023-04-16T13:14:59;37.37;;;25.83;;
20101;SDS011;10210;52.284;9.892;2023-04-16T13:17:24;37.27;;;26.10;;
20101;SDS011;10210;52.284;9.892;2023-04-16T13:19:50;34.50;;;25.00;;
20101;SDS011;10210;52.284;9.892;2023-04-16T13:22:16;32.90;;;24.83;;
20101;SDS011;10210;52.284;9.892;2023-04-16T13:24:41;33.80;;;23.43;;
20101;SDS011;10210;52.284;9.892;2023-04-16T13:27:07;34.17;;;24.90;;
20101;SDS011;10210;52.284;9.892;2023-04-16T13:29:33;36.50;;;26.93;;
20101;SDS011;10210;52.284;9.892;2023-04-16T13:32:02;37.13;;;27.47;;
20101;SDS011;10210;52.284;9.892;2023-04-16T13:34:28;34.57;;;25.27;;
20101;SDS011;10210;52.284;9.892;2023-04-16T13:36:54;37.93;;;26.87;;
20101;SDS011;10210;52.284;9.892;2023-04-16T13:39:20;39.40;;;28.93;;
20101;SDS011;10210;52.284;9.892;2023-04-16T13:41:45;37.67;;;28.30;;
20101;SDS011;10210;52.284;9.892;2023-04-16T13:44:12;40.87;;;28.13;;
20101;SDS011;10210;52.284;9.892;2023-04-16T13:46:38;42.33;;;27.37;;
20101;SDS011;10210;52.284;9.892;2023-04-16T13:49:07;36.90;;;26.03;;
20101;SDS011;10210;52.284;9.892;2023-04-16T13:51:33;33.50;;;24.87;;
20101;SDS011;10210;52.284;9.892;2023-04-16T13:53:58;35.20;;;27.40;;
20101;SDS011;10210;52.284;9.892;2023-04-16T13:56:24;34.80;;;25.93;;
20101;SDS011;10210;52.284;9.892;2023-04-16T13:58:50;35.53;;;26.37;;
20101;SDS011;10210;52.284;9.892;2023-04-16T14:01:16;35.13;;;26.23;;
20101;SDS011;10210;52.284;9.892;2023-04-16T14:03:42;36.43;;;26.13;;
20101;SDS011;10210;52.284;9.892;2023-04-16T14:06:08;39.47;;;28.23;;
20101;SDS011;10210;52.284;9.892;2023-04-16T14:08:33;33.30;;;24.27;;
20101;SDS011;10210;52.284;9.892;2023-04-16T14:10:59;32.30;;;24.33;;
20101;SDS011;10210;52.284;9.892;2023-04-16T14:13:26;33.60;;;25.20;;
20101;SDS011;10210;52.284;9.892;2023-04-16T14:15:54;34.43;;;25.77;;
20101;SDS011;10210;52.284;9.892;2023-04-16T14:18:20;31.73;;;23.37;;
20101;SDS011;10210;52.284;9.892;2023-04-16T14:20:46;32.03;;;23.20;;
20101;SDS011;10210;52.284;9.892;2023-04-16T14:23:12;31.23;;;23.63;;
20101;SDS011;10210;52.284;9.892;2023-04-16T14:25:38;30.53;;;23.17;;
20101;SDS011;10210;52.284;9.892;2023-04-16T14:28:03;28.47;;;20.77;;
20101;SDS011;10210;52.284;9.892;2023-04-16T14:30:29;28.03;;;20.23;;
20101;SDS011;10210;52.284;9.892;2023-04-16T14:32:55;28.43;;;20.90;;